createdAt,value
2022-12-23T00:00:25.199Z,100408.88
2022-12-23T00:02:51.857Z,100413.88
2022-12-23T00:05:18.526Z,100417.25
2022-12-23T00:07:45.002Z,100411.28
2022-12-23T00:10:12.165Z,100411.28
2022-12-23T00:12:57.216Z,100409.66
2022-12-23T00:15:23.604Z,100425.03
2022-12-23T00:17:50.044Z,100418.44
2022-12-23T00:20:16.476Z,100427.00
2022-12-23T00:23:01.689Z,100434.78
2022-12-23T00:25:46.101Z,100437.75
2022-12-23T00:28:18.941Z,100446.53
2022-12-23T00:30:58.973Z,100448.47
2022-12-23T00:33:31.786Z,100445.09
2022-12-23T00:35:58.436Z,100439.91
2022-12-23T00:38:44.158Z,100444.28
2022-12-23T00:41:34.003Z,100456.44
2022-12-23T00:44:01.499Z,100455.03
2022-12-23T00:46:28.432Z,100461.19
2022-12-23T00:49:13.665Z,100457.00
2022-12-23T00:51:40.314Z,100454.41
2022-12-23T00:54:07.270Z,100460.38
2022-12-23T00:56:34.185Z,100458.94
2022-12-23T00:59:00.810Z,100463.34
2022-12-23T01:01:46.086Z,100467.72
2022-12-23T01:04:32.937Z,100466.91
2022-12-23T01:06:59.651Z,100469.50
2022-12-23T01:09:26.819Z,100473.28
2022-12-23T01:11:53.363Z,100478.63
2022-12-23T01:14:20.275Z,100471.84
2022-12-23T01:16:46.802Z,100475.44
2022-12-23T01:19:13.692Z,100484.97
2022-12-23T01:21:40.395Z,100480.78
2022-12-23T01:24:07.795Z,100484.97
2022-12-23T01:26:34.353Z,100486.75
2022-12-23T01:29:01.530Z,100491.94
2022-12-23T01:31:29.093Z,100497.91
2022-12-23T01:33:56.103Z,100498.09
2022-12-23T01:36:23.621Z,100501.50
2022-12-23T01:38:50.547Z,100501.50
2022-12-23T01:41:47.948Z,100511.88
2022-12-23T01:44:51.689Z,100510.25
2022-12-23T01:47:43.832Z,100511.06
2022-12-23T01:50:25.176Z,100514.66
2022-12-23T01:53:08.725Z,100524.19
2022-12-23T01:55:44.636Z,100522.59
2022-12-23T01:58:20.474Z,100523.56
2022-12-23T02:01:05.629Z,100533.16
2022-12-23T02:03:44.781Z,100542.69
2022-12-23T02:06:38.201Z,100543.69
2022-12-23T02:09:31.408Z,100553.22
2022-12-23T02:12:21.378Z,100546.44
2022-12-23T02:15:26.350Z,100561.16
2022-12-23T02:18:04.167Z,100561.16
2022-12-23T02:20:48.737Z,100556.00
2022-12-23T02:23:18.153Z,100557.97
2022-12-23T02:26:38.441Z,100565.13
2022-12-23T02:29:38.482Z,100567.88
2022-12-23T02:32:14.311Z,100575.03
2022-12-23T02:34:55.954Z,100576.00
2022-12-23T02:37:49.584Z,100579.75
2022-12-23T02:40:38.225Z,100580.91
2022-12-23T02:43:15.556Z,100586.28
2022-12-23T02:45:49.450Z,100589.03
2022-12-23T02:48:40.740Z,100594.38
2022-12-23T02:51:13.105Z,100596.38
2022-12-23T02:54:08.522Z,100601.88
2022-12-23T02:56:38.130Z,100595.44
2022-12-23T02:59:18.521Z,100606.31
2022-12-23T03:01:46.041Z,100618.81
2022-12-23T03:04:12.556Z,100618.19
2022-12-23T03:06:44.401Z,100614.97
2022-12-23T03:09:17.276Z,100623.09
2022-12-23T03:11:55.619Z,100626.19
2022-12-23T03:15:08.282Z,100622.13
2022-12-23T03:17:49.827Z,100621.84
2022-12-23T03:20:29.190Z,100614.75
2022-12-23T03:23:11.209Z,100617.06
2022-12-23T03:25:51.174Z,100615.66
2022-12-23T03:28:26.887Z,100610.97
2022-12-23T03:30:57.490Z,100611.31
2022-12-23T03:33:32.971Z,100604.19
2022-12-23T03:36:06.479Z,100609.66
2022-12-23T03:38:36.138Z,100607.72
2022-12-23T03:41:09.412Z,100610.13
2022-12-23T03:43:48.379Z,100613.50
2022-12-23T03:46:23.513Z,100616.09
2022-12-23T03:48:58.627Z,100625.28
2022-12-23T03:51:36.359Z,100630.28
2022-12-23T03:54:13.038Z,100626.75
2022-12-23T03:56:46.132Z,100620.59
2022-12-23T03:59:25.291Z,100619.59
2022-12-23T04:02:09.804Z,100616.38
2022-12-23T04:04:42.234Z,100634.50
2022-12-23T04:07:19.113Z,100637.09
2022-12-23T04:09:46.593Z,100637.88
2022-12-23T04:12:14.516Z,100641.31
2022-12-23T04:14:49.186Z,100648.06
2022-12-23T04:17:16.680Z,100661.00
2022-12-23T04:19:47.445Z,100662.63
2022-12-23T04:22:15.639Z,100671.19
2022-12-23T04:24:42.849Z,100673.78
2022-12-23T04:27:13.028Z,100669.25
2022-12-23T04:29:39.459Z,100683.00
2022-12-23T04:32:09.134Z,100675.25
2022-12-23T04:34:35.887Z,100672.66
2022-12-23T04:37:02.300Z,100677.03
2022-12-23T04:39:28.777Z,100674.25
2022-12-23T04:41:55.278Z,100671.66
2022-12-23T04:44:21.772Z,100665.50
2022-12-23T04:46:48.155Z,100663.88
2022-12-23T04:49:14.629Z,100671.47
2022-12-23T04:51:41.005Z,100659.53
2022-12-23T04:54:07.396Z,100654.19
2022-12-23T04:56:33.770Z,100653.19
2022-12-23T04:59:02.247Z,100652.25
2022-12-23T05:01:29.262Z,100647.06
2022-12-23T05:03:55.735Z,100653.19
2022-12-23T05:06:22.121Z,100655.78
2022-12-23T05:08:48.538Z,100654.97
2022-12-23T05:11:15.004Z,100647.06
2022-12-23T05:13:41.783Z,100647.88
2022-12-23T05:16:08.387Z,100656.47
2022-12-23T05:18:34.826Z,100660.03
2022-12-23T05:21:01.274Z,100663.41
2022-12-23T05:23:27.744Z,100662.59
2022-12-23T05:25:54.430Z,100671.00
2022-12-23T05:28:22.684Z,100675.38
2022-12-23T05:30:49.093Z,100684.25
2022-12-23T05:33:15.803Z,100687.84
2022-12-23T05:35:42.264Z,100686.56
2022-12-23T05:38:08.730Z,100685.94
2022-12-23T05:40:35.255Z,100685.66
2022-12-23T05:43:01.995Z,100696.00
2022-12-23T05:45:28.615Z,100697.13
2022-12-23T05:47:55.041Z,100702.31
2022-12-23T05:50:21.449Z,100706.69
2022-12-23T05:52:47.855Z,100698.28
2022-12-23T05:55:14.228Z,100703.31
2022-12-23T05:57:40.672Z,100701.50
2022-12-23T06:00:08.148Z,100699.09
2022-12-23T06:02:34.633Z,100700.06
2022-12-23T06:05:01.045Z,100703.81
2022-12-23T06:07:27.561Z,100693.78
2022-12-23T06:09:53.934Z,100694.41
2022-12-23T06:12:20.313Z,100684.41
2022-12-23T06:14:46.950Z,100692.34
2022-12-23T06:17:13.391Z,100695.75
2022-12-23T06:19:39.851Z,100696.38
2022-12-23T06:22:06.246Z,100685.41
2022-12-23T06:24:32.693Z,100683.66
2022-12-23T06:26:59.120Z,100673.31
2022-12-23T06:29:25.686Z,100677.81
2022-12-23T06:31:52.281Z,100677.53
2022-12-23T06:34:18.820Z,100680.94
2022-12-23T06:36:45.238Z,100678.19
2022-12-23T06:39:11.861Z,100673.34
2022-12-23T06:41:38.314Z,100676.72
2022-12-23T06:44:05.224Z,100686.28
2022-12-23T06:46:31.806Z,100691.47
2022-12-23T06:48:58.354Z,100690.81
2022-12-23T06:51:24.807Z,100693.06
2022-12-23T06:53:51.256Z,100704.22
2022-12-23T06:56:18.521Z,100708.41
2022-12-23T06:58:45.038Z,100711.81
2022-12-23T07:01:11.716Z,100709.88
2022-12-23T07:03:38.228Z,100704.69
2022-12-23T07:06:05.028Z,100714.88
2022-12-23T07:08:31.434Z,100714.88
2022-12-23T07:11:02.161Z,100719.88
2022-12-23T07:13:29.241Z,100719.06
2022-12-23T07:15:55.822Z,100715.50
2022-12-23T07:18:23.407Z,100729.41
2022-12-23T07:20:50.866Z,100732.97
2022-12-23T07:23:17.376Z,100732.97
2022-12-23T07:25:43.827Z,100743.34
2022-12-23T07:28:10.254Z,100739.75
2022-12-23T07:30:36.737Z,100735.72
2022-12-23T07:33:03.143Z,100732.97
2022-12-23T07:35:29.895Z,100739.91
2022-12-23T07:37:56.765Z,100738.31
2022-12-23T07:40:23.997Z,100736.38
2022-12-23T07:42:53.598Z,100728.59
2022-12-23T07:45:20.115Z,100726.00
2022-12-23T07:47:46.608Z,100715.84
2022-12-23T07:50:13.635Z,100717.78
2022-12-23T07:52:40.037Z,100718.28
2022-12-23T07:55:06.710Z,100708.13
2022-12-23T07:57:37.732Z,100711.31
2022-12-23T08:00:06.093Z,100712.16
2022-12-23T08:02:33.244Z,100717.31
2022-12-23T08:04:59.723Z,100712.00
2022-12-23T08:07:26.147Z,100707.63
2022-12-23T08:09:52.576Z,100710.03
2022-12-23T08:12:19.197Z,100712.44
2022-12-23T08:14:45.865Z,100708.69
2022-12-23T08:17:12.348Z,100699.97
2022-12-23T08:19:38.865Z,100706.78
2022-12-23T08:22:05.393Z,100697.06
2022-12-23T08:24:31.805Z,100702.84
2022-12-23T08:26:58.342Z,100701.88
2022-12-23T08:29:24.778Z,100702.69
2022-12-23T08:31:51.647Z,100701.72
2022-12-23T08:34:19.288Z,100696.38
2022-12-23T08:36:46.047Z,100698.78
2022-12-23T08:39:12.707Z,100683.44
2022-12-23T08:41:42.716Z,100674.06
2022-12-23T08:44:09.581Z,100673.25
2022-12-23T08:46:36.844Z,100683.28
2022-12-23T08:49:04.651Z,100687.28
2022-12-23T08:51:31.216Z,100682.94
2022-12-23T08:54:00.795Z,100670.00
2022-12-23T08:56:31.360Z,100669.16
2022-12-23T08:58:58.375Z,100667.25
2022-12-23T09:01:28.169Z,100663.66
2022-12-23T09:03:54.918Z,100665.28
2022-12-23T09:06:28.983Z,100655.56
2022-12-23T09:08:56.501Z,100651.16
2022-12-23T09:11:26.217Z,100651.81
2022-12-23T09:13:52.745Z,100647.28
2022-12-23T09:16:19.879Z,100640.13
2022-12-23T09:18:46.316Z,100639.16
2022-12-23T09:21:18.734Z,100644.19
2022-12-23T09:23:45.796Z,100637.19
2022-12-23T09:26:27.429Z,100639.63
2022-12-23T09:28:55.392Z,100634.44
2022-12-23T09:31:22.460Z,100631.69
2022-12-23T09:33:52.362Z,100637.66
2022-12-23T09:36:19.287Z,100641.91
2022-12-23T09:38:46.760Z,100634.13
2022-12-23T09:41:42.843Z,100642.53
2022-12-23T09:44:38.468Z,100638.00
2022-12-23T09:47:12.845Z,100637.00
2022-12-23T09:49:47.264Z,100639.41
2022-12-23T09:52:19.292Z,100625.06
2022-12-23T09:54:50.076Z,100622.47
2022-12-23T09:57:22.411Z,100622.25
2022-12-23T10:00:05.680Z,100615.50
2022-12-23T10:03:01.793Z,100602.38
2022-12-23T10:05:46.623Z,100592.03
2022-12-23T10:08:35.866Z,100589.59
2022-12-23T10:11:18.675Z,100572.44
2022-12-23T10:13:56.405Z,100561.31
2022-12-23T10:16:27.708Z,100560.50
2022-12-23T10:19:07.061Z,100570.88
2022-12-23T10:22:04.958Z,100557.75
2022-12-23T10:24:40.802Z,100554.16
2022-12-23T10:27:34.166Z,100551.38
2022-12-23T10:33:23.422Z,100551.84
2022-12-23T10:36:08.120Z,100553.28
2022-12-23T10:38:54.247Z,100548.91
2022-12-23T10:41:20.588Z,100553.09
2022-12-23T10:43:46.959Z,100541.78
2022-12-23T10:46:39.781Z,100540.97
2022-12-23T10:49:43.827Z,100536.59
2022-12-23T10:52:25.548Z,100534.63
2022-12-23T10:54:51.960Z,100533.63
2022-12-23T10:57:20.172Z,100537.06
2022-12-23T10:59:47.019Z,100524.09
2022-12-23T11:02:13.696Z,100523.28
2022-12-23T11:04:43.115Z,100526.69
2022-12-23T11:10:03.931Z,100509.34
2022-12-23T11:12:42.497Z,100506.59
2022-12-23T11:15:32.660Z,100498.66
2022-12-23T11:18:01.304Z,100501.84
2022-12-23T11:20:28.092Z,100499.09
2022-12-23T11:23:02.697Z,100496.31
2022-12-23T11:25:40.569Z,100493.56
2022-12-23T11:28:10.754Z,100491.75
2022-12-23T11:30:39.585Z,100494.00
2022-12-23T11:33:06.602Z,100485.25
2022-12-23T11:35:36.154Z,100484.47
2022-12-23T11:38:03.380Z,100477.50
2022-12-23T11:40:34.116Z,100468.75
2022-12-23T11:43:14.433Z,100452.38
2022-12-23T11:45:41.022Z,100437.66
2022-12-23T11:48:27.231Z,100426.31
2022-12-23T11:51:02.132Z,100417.56
2022-12-23T11:53:28.671Z,100412.38
2022-12-23T11:56:05.700Z,100411.38
2022-12-23T11:58:40.663Z,100404.44
2022-12-23T12:01:17.728Z,100387.09
2022-12-23T12:03:53.877Z,100383.53
2022-12-23T12:06:22.580Z,100375.75
2022-12-23T12:08:55.800Z,100377.34
2022-12-23T12:11:28.144Z,100379.75
2022-12-23T12:14:00.478Z,100374.56
2022-12-23T12:16:59.445Z,100365.03
2022-12-23T12:19:31.409Z,100362.25
2022-12-23T12:22:04.093Z,100367.63
2022-12-23T12:24:41.905Z,100365.63
2022-12-23T12:27:11.287Z,100363.06
2022-12-23T12:29:51.555Z,100364.84
2022-12-23T12:32:21.015Z,100351.72
2022-12-23T12:35:00.765Z,100341.34
2022-12-23T12:37:41.061Z,100332.94
2022-12-23T12:40:16.463Z,100309.63
2022-12-23T12:42:48.823Z,100319.19
2022-12-23T12:45:22.999Z,100304.81
2022-12-23T12:48:47.070Z,100302.22
2022-12-23T12:51:29.921Z,100288.47
2022-12-23T12:54:06.305Z,100282.50
2022-12-23T12:56:46.903Z,100270.34
2022-12-23T12:59:27.859Z,100266.31
2022-12-23T13:02:16.377Z,100272.31
2022-12-23T13:05:07.863Z,100264.56
2022-12-23T13:07:40.704Z,100259.56
2022-12-23T13:10:41.011Z,100248.19
2022-12-23T13:13:10.850Z,100249.81
2022-12-23T13:16:03.288Z,100251.25
2022-12-23T13:18:46.868Z,100244.44
2022-12-23T13:21:24.290Z,100247.63
2022-12-23T13:24:07.936Z,100242.63
2022-12-23T13:26:41.414Z,100250.41
2022-12-23T13:29:32.365Z,100246.06
2022-12-23T13:32:20.537Z,100242.81
2022-12-23T13:34:52.931Z,100238.47
2022-12-23T13:37:32.636Z,100237.03
2022-12-23T13:40:47.337Z,100232.22
2022-12-23T13:43:18.631Z,100238.59
2022-12-23T13:45:47.163Z,100244.56
2022-12-23T13:48:55.207Z,100242.16
2022-12-23T13:51:59.027Z,100232.78
2022-12-23T13:54:43.607Z,100218.59
2022-12-23T13:57:27.323Z,100200.25
2022-12-23T14:00:05.957Z,100201.41
2022-12-23T14:02:36.101Z,100189.44
2022-12-23T14:05:05.283Z,100187.84
2022-12-23T14:07:33.858Z,100168.94
2022-12-23T14:10:12.638Z,100160.53
2022-12-23T14:12:42.248Z,100145.19
2022-12-23T14:15:38.373Z,100142.59
2022-12-23T14:18:30.722Z,100147.56
2022-12-23T14:21:25.616Z,100143.66
2022-12-23T14:24:09.937Z,100147.63
2022-12-23T14:27:11.641Z,100149.84
2022-12-23T14:30:07.262Z,100143.50
2022-12-23T14:32:44.055Z,100134.94
2022-12-23T14:35:24.146Z,100134.13
2022-12-23T14:38:22.434Z,100138.69
2022-12-23T14:40:50.914Z,100141.28
2022-12-23T14:43:23.611Z,100150.22
2022-12-23T14:46:01.038Z,100151.22
2022-12-23T14:48:33.650Z,100151.22
2022-12-23T14:51:22.973Z,100155.59
2022-12-23T14:53:52.432Z,100158.19
2022-12-23T14:56:18.832Z,100165.75
2022-12-23T14:58:51.696Z,100164.59
2022-12-23T15:01:26.847Z,100161.63
2022-12-23T15:03:59.269Z,100149.84
2022-12-23T15:06:41.725Z,100144.84
2022-12-23T15:09:16.365Z,100140.88
2022-12-23T15:11:42.883Z,100149.63
2022-12-23T15:14:20.880Z,100142.81
2022-12-23T15:16:47.377Z,100135.28
2022-12-23T15:19:22.042Z,100135.47
2022-12-23T15:21:56.662Z,100134.63
2022-12-23T15:24:26.773Z,100125.47
2022-12-23T15:27:24.551Z,100120.47
2022-12-23T15:29:45.992Z,100129.22
2022-12-23T15:32:12.589Z,100115.66
2022-12-23T15:34:39.206Z,100126.03
2022-12-23T15:37:11.521Z,100128.63
2022-12-23T15:39:41.806Z,100119.22
2022-12-23T15:42:31.742Z,100119.22
2022-12-23T15:44:58.525Z,100122.81
2022-12-23T15:47:37.003Z,100137.16
2022-12-23T15:50:04.340Z,100123.44
2022-12-23T15:52:32.592Z,100112.47
2022-12-23T15:55:11.659Z,100128.97
2022-12-23T15:57:49.824Z,100133.97
2022-12-23T16:00:19.958Z,100154.31
2022-12-23T16:03:04.707Z,100142.16
2022-12-23T16:05:36.594Z,100142.34
2022-12-23T16:08:21.802Z,100137.72
2022-12-23T16:11:10.585Z,100152.28
2022-12-23T16:13:41.479Z,100163.25
2022-12-23T16:16:43.094Z,100148.13
2022-12-23T16:19:38.699Z,100138.34
2022-12-23T16:22:17.956Z,100141.91
2022-12-23T16:25:03.258Z,100147.53
2022-12-23T16:27:42.518Z,100143.78
2022-12-23T16:30:21.417Z,100127.59
2022-12-23T16:32:56.757Z,100128.78
2022-12-23T16:35:43.227Z,100123.00
2022-12-23T16:38:15.783Z,100133.38
2022-12-23T16:40:43.288Z,100139.53
2022-12-23T16:43:10.139Z,100142.72
2022-12-23T16:45:37.134Z,100142.72
2022-12-23T16:48:19.786Z,100141.56
2022-12-23T16:50:46.852Z,100151.09
2022-12-23T16:53:14.218Z,100151.91
2022-12-23T16:55:46.253Z,100150.13
2022-12-23T16:58:16.794Z,100141.56
2022-12-23T17:00:43.376Z,100151.09
2022-12-23T17:03:15.703Z,100149.13
2022-12-23T17:05:42.324Z,100152.34
2022-12-23T17:08:09.269Z,100157.31
2022-12-23T17:10:36.937Z,100163.94
2022-12-23T17:13:03.433Z,100160.16
2022-12-23T17:15:29.860Z,100155.16
2022-12-23T17:17:56.500Z,100158.56
2022-12-23T17:20:24.246Z,100163.75
2022-12-23T17:22:58.169Z,100163.53
2022-12-23T17:25:26.758Z,100155.34
2022-12-23T17:27:53.661Z,100183.81
2022-12-23T17:30:24.088Z,100173.28
2022-12-23T17:32:56.300Z,100173.28
2022-12-23T17:35:24.111Z,100159.56
2022-12-23T17:37:51.045Z,100151.59
2022-12-23T17:40:18.100Z,100165.16
2022-12-23T17:42:45.398Z,100159.59
2022-12-23T17:45:27.637Z,100157.44
2022-12-23T17:47:54.668Z,100158.06
2022-12-23T17:50:21.398Z,100154.09
2022-12-23T17:52:48.564Z,100152.13
2022-12-23T17:55:19.915Z,100160.34
2022-12-23T17:57:46.478Z,100154.94
2022-12-23T18:00:13.764Z,100158.00
2022-12-23T18:02:40.795Z,100157.44
2022-12-23T18:05:28.300Z,100156.03
2022-12-23T18:07:55.898Z,100162.47
2022-12-23T18:10:26.625Z,100169.69
2022-12-23T18:12:58.289Z,100164.72
2022-12-23T18:15:30.036Z,100166.13
2022-12-23T18:17:56.412Z,100164.59
2022-12-23T18:20:24.971Z,100168.56
2022-12-23T18:22:54.337Z,100180.19
2022-12-23T18:25:26.683Z,100177.41
2022-12-23T18:27:54.151Z,100183.97
2022-12-23T18:30:21.488Z,100182.81
2022-12-23T18:32:48.237Z,100185.22
2022-12-23T18:35:27.142Z,100186.44
2022-12-23T18:37:54.648Z,100194.44
2022-12-23T18:40:21.513Z,100199.25
2022-12-23T18:42:47.993Z,100202.44
2022-12-23T18:45:28.362Z,100190.88
2022-12-23T18:47:55.394Z,100196.88
2022-12-23T18:50:21.980Z,100210.06
2022-12-23T18:52:48.935Z,100215.06
2022-12-23T18:55:15.426Z,100226.25
2022-12-23T18:57:41.951Z,100218.47
2022-12-23T19:00:23.053Z,100220.06
2022-12-23T19:02:53.156Z,100217.66
2022-12-23T19:05:25.766Z,100241.19
2022-12-23T19:07:53.537Z,100224.47
2022-12-23T19:10:28.248Z,100234.84
2022-12-23T19:12:55.575Z,100226.84
2022-12-23T19:15:23.117Z,100228.47
2022-12-23T19:17:50.358Z,100226.84
2022-12-23T19:20:18.585Z,100231.03
2022-12-23T19:22:45.548Z,100229.25
2022-12-23T19:25:14.840Z,100235.25
2022-12-23T19:27:42.478Z,100231.25
2022-12-23T19:30:12.491Z,100236.44
2022-12-23T19:32:38.857Z,100239.03
2022-12-23T19:35:05.837Z,100243.41
2022-12-23T19:37:33.443Z,100251.19
2022-12-23T19:40:00.547Z,100251.97
2022-12-23T19:42:27.015Z,100255.59
2022-12-23T19:44:53.444Z,100253.78
2022-12-23T19:47:19.867Z,100258.97
2022-12-23T19:49:46.291Z,100264.94
2022-12-23T19:52:12.821Z,100261.56
2022-12-23T19:54:39.206Z,100269.34
2022-12-23T19:57:05.698Z,100268.97
2022-12-23T19:59:32.102Z,100276.56
2022-12-23T20:01:58.623Z,100287.72
2022-12-23T20:04:25.069Z,100288.50
2022-12-23T20:06:52.484Z,100294.53
2022-12-23T20:09:19.096Z,100290.72
2022-12-23T20:11:47.617Z,100289.94
2022-12-23T20:14:17.020Z,100293.34
2022-12-23T20:16:44.068Z,100301.13
2022-12-23T20:19:10.778Z,100295.72
2022-12-23T20:21:37.505Z,100300.75
2022-12-23T20:24:05.778Z,100305.53
2022-12-23T20:26:32.319Z,100308.94
2022-12-23T20:28:58.934Z,100313.13
2022-12-23T20:31:31.253Z,100318.94
2022-12-23T20:33:58.447Z,100322.53
2022-12-23T20:36:27.264Z,100323.31
2022-12-23T20:38:54.255Z,100330.31
2022-12-23T20:41:23.426Z,100322.53
2022-12-23T20:44:23.302Z,100336.31
2022-12-23T20:46:38.107Z,100335.13
2022-12-23T20:49:04.636Z,100338.72
2022-12-23T20:51:31.030Z,100349.50
2022-12-23T20:54:00.961Z,100354.88
2022-12-23T20:56:29.183Z,100357.47
2022-12-23T20:59:00.357Z,100356.69
2022-12-23T21:01:35.757Z,100372.06
2022-12-23T21:04:08.375Z,100372.06
2022-12-23T21:06:36.011Z,100386.78
2022-12-23T21:09:05.775Z,100388.59
2022-12-23T21:11:34.897Z,100388.00
2022-12-23T21:14:06.871Z,100385.03
2022-12-23T21:16:36.528Z,100398.00
2022-12-23T21:19:04.027Z,100395.41
2022-12-23T21:21:31.764Z,100400.78
2022-12-23T21:24:01.366Z,100401.75
2022-12-23T21:26:30.324Z,100404.34
2022-12-23T21:29:01.867Z,100403.56
2022-12-23T21:31:30.965Z,100406.94
2022-12-23T21:33:58.231Z,100415.75
2022-12-23T21:36:28.088Z,100417.50
2022-12-23T21:38:55.096Z,100420.47
2022-12-23T21:41:24.520Z,100425.66
2022-12-23T21:43:51.323Z,100422.88
2022-12-23T21:46:20.206Z,100421.28
2022-12-23T21:48:47.977Z,100445.81
2022-12-23T21:51:20.473Z,100444.81
2022-12-23T21:53:49.533Z,100449.66
2022-12-23T21:56:18.792Z,100447.84
2022-12-23T21:58:45.794Z,100448.22
2022-12-23T22:01:16.043Z,100465.22
2022-12-23T22:03:43.691Z,100465.22
2022-12-23T22:06:12.771Z,100463.78
2022-12-23T22:08:39.845Z,100458.59
2022-12-23T22:11:18.563Z,100469.16
2022-12-23T22:13:45.514Z,100465.94
2022-12-23T22:16:15.152Z,100479.28
2022-12-23T22:18:42.211Z,100478.66
2022-12-23T22:21:14.674Z,100479.03
2022-12-23T22:23:41.984Z,100498.53
2022-12-23T22:26:10.499Z,100503.09
2022-12-23T22:28:39.031Z,100502.50
2022-12-23T22:31:19.453Z,100518.06
2022-12-23T22:33:46.288Z,100513.22
2022-12-23T22:36:14.384Z,100519.22
2022-12-23T22:38:41.713Z,100533.97
2022-12-23T22:41:08.729Z,100536.94
2022-12-23T22:43:35.230Z,100546.28
2022-12-23T22:46:02.058Z,100534.53
2022-12-23T22:48:29.994Z,100541.50
2022-12-23T22:51:05.189Z,100547.84
2022-12-23T22:53:32.184Z,100553.22
2022-12-23T22:56:00.165Z,100555.19
2022-12-23T22:58:28.528Z,100550.34
2022-12-23T23:00:55.433Z,100555.97
2022-12-23T23:03:22.208Z,100550.78
2022-12-23T23:05:59.459Z,100557.97
2022-12-23T23:08:26.206Z,100562.13
2022-12-23T23:10:53.557Z,100563.56
2022-12-23T23:13:20.014Z,100565.19
2022-12-23T23:15:49.961Z,100574.91
2022-12-23T23:18:16.493Z,100583.69
2022-12-23T23:20:42.957Z,100569.75
2022-12-23T23:23:09.404Z,100578.69
2022-12-23T23:25:35.857Z,100582.09
2022-12-23T23:28:02.471Z,100586.91
2022-12-23T23:30:29.021Z,100577.69
2022-12-23T23:32:55.513Z,100587.28
2022-12-23T23:35:21.973Z,100590.88
2022-12-23T23:37:48.441Z,100598.00
2022-12-23T23:40:14.991Z,100597.19
2022-12-23T23:42:41.445Z,100601.59
2022-12-23T23:45:08.245Z,100603.19
2022-12-23T23:47:34.944Z,100604.81
2022-12-23T23:50:01.753Z,100615.97
2022-12-23T23:52:28.942Z,100609.81
2022-12-23T23:54:55.511Z,100615.78
2022-12-23T23:57:22.560Z,100612.84
2022-12-23T23:59:48.998Z,100624.00
